createdAt,value
2018-08-17T00:00:54.619Z,2.13
2018-08-17T00:05:57.194Z,2.40
2018-08-17T00:10:59.880Z,2.13
2018-08-17T00:16:02.458Z,2.40
2018-08-17T00:21:05.051Z,2.43
2018-08-17T00:26:07.770Z,2.47
2018-08-17T00:31:10.282Z,1.80
2018-08-17T00:36:12.947Z,2.13
2018-08-17T00:41:15.490Z,1.87
2018-08-17T00:46:18.170Z,2.40
2018-08-17T00:51:20.782Z,2.30
2018-08-17T00:56:23.319Z,2.60
2018-08-17T01:01:25.842Z,2.67
2018-08-17T01:06:28.380Z,2.53
2018-08-17T01:11:30.898Z,2.50
2018-08-17T01:16:33.455Z,2.23
2018-08-17T01:21:36.076Z,2.60
2018-08-17T01:26:38.593Z,2.57
2018-08-17T01:31:41.245Z,2.27
2018-08-17T01:36:43.850Z,2.47
2018-08-17T01:41:46.425Z,2.40
2018-08-17T01:46:48.964Z,2.43
2018-08-17T01:51:51.650Z,2.70
2018-08-17T01:56:54.164Z,2.47
2018-08-17T02:01:56.703Z,2.53
2018-08-17T02:06:59.239Z,2.30
2018-08-17T02:12:02.646Z,2.20
2018-08-17T02:17:05.204Z,2.40
2018-08-17T02:22:07.781Z,2.40
2018-08-17T02:27:10.318Z,2.37
2018-08-17T02:32:12.827Z,2.50
2018-08-17T02:37:15.345Z,2.60
2018-08-17T02:42:17.884Z,2.60
2018-08-17T02:47:20.412Z,2.40
2018-08-17T02:52:22.965Z,2.63
2018-08-17T02:57:25.660Z,2.60
2018-08-17T03:02:28.195Z,2.93
2018-08-17T03:07:30.710Z,2.80
2018-08-17T03:12:33.236Z,3.10
2018-08-17T03:17:35.789Z,2.90
2018-08-17T03:22:38.380Z,3.00
2018-08-17T03:27:40.965Z,2.70
2018-08-17T03:32:43.545Z,2.93
2018-08-17T03:37:46.079Z,2.90
2018-08-17T03:42:48.594Z,2.70
2018-08-17T03:47:51.154Z,2.43
2018-08-17T03:52:53.673Z,2.57
2018-08-17T03:57:56.225Z,2.70
2018-08-17T04:02:58.827Z,2.90
2018-08-17T04:08:01.452Z,2.80
2018-08-17T04:13:04.292Z,2.60
2018-08-17T04:18:08.031Z,3.03
2018-08-17T04:23:10.565Z,2.70
2018-08-17T04:28:13.191Z,2.70
2018-08-17T04:33:15.736Z,2.53
2018-08-17T04:38:18.259Z,2.87
2018-08-17T04:43:20.895Z,3.23
2018-08-17T04:48:23.579Z,3.60
2018-08-17T04:53:29.863Z,4.00
2018-08-17T04:58:32.389Z,3.77
2018-08-17T05:03:34.919Z,4.10
2018-08-17T05:08:37.450Z,3.97
2018-08-17T05:13:39.963Z,3.87
2018-08-17T05:18:42.518Z,4.10
2018-08-17T05:23:45.055Z,3.97
2018-08-17T05:28:47.582Z,4.13
2018-08-17T05:33:50.302Z,3.90
2018-08-17T05:38:53.467Z,3.90
2018-08-17T05:43:56.010Z,3.47
2018-08-17T05:48:58.557Z,3.70
2018-08-17T05:54:01.234Z,3.10
2018-08-17T05:59:03.810Z,3.53
2018-08-17T06:04:08.800Z,4.77
2018-08-17T06:09:11.351Z,3.73
2018-08-17T06:14:14.019Z,4.03
2018-08-17T06:19:17.490Z,3.43
2018-08-17T06:24:20.184Z,3.53
2018-08-17T06:29:22.715Z,4.53
2018-08-17T06:34:25.513Z,3.90
2018-08-17T06:39:28.090Z,4.60
2018-08-17T06:44:30.672Z,6.30
2018-08-17T06:49:36.273Z,5.00
2018-08-17T06:54:38.889Z,3.47
2018-08-17T06:59:41.904Z,3.37
2018-08-17T07:04:45.212Z,3.00
2018-08-17T07:09:47.760Z,4.00
2018-08-17T07:14:50.406Z,2.90
2018-08-17T07:19:53.078Z,3.13
2018-08-17T07:24:55.602Z,3.07
2018-08-17T07:30:01.894Z,3.13
2018-08-17T07:35:06.266Z,3.80
2018-08-17T07:40:08.962Z,3.07
2018-08-17T07:45:11.572Z,3.13
2018-08-17T07:50:16.237Z,3.40
2018-08-17T07:55:18.794Z,2.90
2018-08-17T08:00:21.415Z,3.00
2018-08-17T08:05:23.975Z,3.00
2018-08-17T08:10:29.799Z,3.20
2018-08-17T08:15:32.487Z,3.07
2018-08-17T08:20:37.143Z,3.50
2018-08-17T08:25:40.347Z,3.10
2018-08-17T08:30:43.250Z,2.60
2018-08-17T08:35:46.234Z,3.17
2018-08-17T08:40:48.867Z,2.80
2018-08-17T08:45:51.435Z,2.67
2018-08-17T08:50:53.974Z,2.50
2018-08-17T08:55:56.638Z,2.30
2018-08-17T09:00:59.219Z,2.50
2018-08-17T09:06:01.882Z,2.50
2018-08-17T09:11:04.815Z,2.50
2018-08-17T09:16:07.499Z,2.30
2018-08-17T09:21:10.098Z,2.20
2018-08-17T09:26:12.629Z,2.00
2018-08-17T09:31:15.187Z,2.23
2018-08-17T09:36:17.771Z,2.30
2018-08-17T09:41:20.330Z,2.00
2018-08-17T09:52:19.212Z,2.10
2018-08-17T09:57:21.755Z,2.27
2018-08-17T10:03:28.588Z,1.92
2018-08-17T10:08:36.305Z,2.35
2018-08-17T10:25:31.555Z,2.25
2018-08-17T10:30:34.315Z,2.17
2018-08-17T10:35:36.920Z,2.00
2018-08-17T10:40:39.642Z,2.40
2018-08-17T10:45:42.175Z,2.00
2018-08-17T10:50:44.735Z,2.00
2018-08-17T10:55:47.840Z,2.40
2018-08-17T11:00:50.372Z,2.30
2018-08-17T11:05:52.900Z,2.17
2018-08-17T11:10:55.461Z,2.00
2018-08-17T11:15:58.235Z,1.90
2018-08-17T11:21:00.883Z,2.45
2018-08-17T11:26:03.527Z,1.98
2018-08-17T11:31:06.198Z,1.92
2018-08-17T11:36:08.936Z,2.02
2018-08-17T11:41:12.280Z,2.22
2018-08-17T11:46:14.843Z,1.77
2018-08-17T11:51:17.772Z,2.10
2018-08-17T11:56:20.461Z,2.30
2018-08-17T12:01:26.452Z,2.08
2018-08-17T12:06:29.009Z,2.00
2018-08-17T12:11:31.572Z,2.10
2018-08-17T12:16:34.227Z,2.10
2018-08-17T12:21:36.850Z,2.25
2018-08-17T12:26:54.407Z,2.30
2018-08-17T12:31:57.012Z,2.30
2018-08-17T12:36:59.532Z,2.60
2018-08-17T12:42:03.197Z,2.00
2018-08-17T12:47:05.766Z,2.50
2018-08-17T12:52:09.035Z,2.50
2018-08-17T12:57:11.563Z,2.58
2018-08-17T13:02:14.160Z,2.20
2018-08-17T13:07:16.726Z,2.87
2018-08-17T13:12:19.390Z,2.43
2018-08-17T13:17:22.249Z,2.67
2018-08-17T13:22:24.792Z,2.17
2018-08-17T13:27:27.377Z,3.30
2018-08-17T13:32:29.899Z,2.87
2018-08-17T13:37:32.548Z,3.17
2018-08-17T13:42:35.457Z,2.63
2018-08-17T13:47:38.066Z,3.13
2018-08-17T13:52:40.660Z,3.20
2018-08-17T13:57:43.229Z,3.13
2018-08-17T14:02:45.811Z,3.10
2018-08-17T14:07:48.645Z,2.90
2018-08-17T14:12:51.178Z,3.20
2018-08-17T14:17:53.719Z,3.10
2018-08-17T14:22:56.341Z,3.17
2018-08-17T14:27:58.875Z,2.80
2018-08-17T14:33:01.613Z,2.97
2018-08-17T14:38:04.371Z,3.10
2018-08-17T14:43:06.968Z,2.87
2018-08-17T14:48:09.599Z,3.00
2018-08-17T14:53:12.167Z,2.97
2018-08-17T14:58:14.815Z,2.83
2018-08-17T15:03:17.390Z,2.90
2018-08-17T15:08:19.951Z,3.30
2018-08-17T15:13:22.553Z,3.67
2018-08-17T15:18:25.063Z,2.90
2018-08-17T15:23:28.633Z,2.97
2018-08-17T15:28:31.223Z,3.00
2018-08-17T15:33:33.798Z,3.13
2018-08-17T15:38:36.341Z,2.60
2018-08-17T15:43:38.921Z,2.77
2018-08-17T15:48:48.882Z,2.90
2018-08-17T15:53:51.497Z,3.37
2018-08-17T15:58:54.028Z,2.77
2018-08-17T16:03:56.560Z,2.80
2018-08-17T16:08:59.180Z,2.63
2018-08-17T16:14:01.822Z,2.90
2018-08-17T16:19:04.848Z,2.73
2018-08-17T16:24:07.552Z,2.40
2018-08-17T16:29:10.124Z,2.17
2018-08-17T16:34:12.698Z,2.00
2018-08-17T16:39:16.931Z,2.30
2018-08-17T16:44:19.460Z,2.30
2018-08-17T16:49:22.015Z,2.40
2018-08-17T16:54:24.584Z,2.50
2018-08-17T16:59:27.101Z,2.37
2018-08-17T17:04:35.697Z,2.27
2018-08-17T17:09:38.375Z,2.70
2018-08-17T17:14:41.143Z,3.00
2018-08-17T17:19:43.777Z,2.80
2018-08-17T17:24:46.349Z,2.63
2018-08-17T17:29:48.880Z,2.53
2018-08-17T17:34:51.475Z,3.07
2018-08-17T17:39:53.950Z,3.47
2018-08-17T17:44:56.601Z,3.13
2018-08-17T17:49:59.165Z,2.77
2018-08-17T17:55:04.441Z,2.93
2018-08-17T18:00:07.242Z,2.90
2018-08-17T18:05:09.928Z,2.73
2018-08-17T18:10:12.523Z,3.00
2018-08-17T18:15:15.213Z,3.03
2018-08-17T18:20:17.862Z,3.10
2018-08-17T18:25:20.485Z,2.93
2018-08-17T18:30:23.151Z,3.27
2018-08-17T18:35:25.939Z,3.47
2018-08-17T18:40:28.554Z,3.60
2018-08-17T18:45:31.218Z,3.23
2018-08-17T18:50:33.831Z,3.03
2018-08-17T18:55:37.202Z,3.37
2018-08-17T19:00:40.189Z,3.20
2018-08-17T19:05:43.059Z,3.10
2018-08-17T19:10:45.727Z,3.13
2018-08-17T19:15:55.529Z,3.53
2018-08-17T19:21:08.729Z,3.30
2018-08-17T19:26:11.466Z,3.10
2018-08-17T19:31:14.091Z,3.20
2018-08-17T19:36:16.715Z,3.30
2018-08-17T19:41:20.035Z,3.10
2018-08-17T19:46:22.892Z,3.60
2018-08-17T19:51:25.677Z,3.20
2018-08-17T19:56:28.248Z,3.70
2018-08-17T20:01:30.916Z,3.80
2018-08-17T20:06:33.558Z,4.10
2018-08-17T20:11:36.548Z,4.57
2018-08-17T20:16:39.369Z,4.60
2018-08-17T20:21:41.939Z,4.33
2018-08-17T20:26:44.775Z,5.55
2018-08-17T20:31:47.288Z,5.43
2018-08-17T20:36:52.951Z,5.13
2018-08-17T20:41:55.507Z,4.73
2018-08-17T20:46:58.271Z,5.17
2018-08-17T20:52:02.074Z,5.17
2018-08-17T20:57:04.734Z,4.73
2018-08-17T21:02:07.377Z,5.23
2018-08-17T21:07:09.891Z,5.63
2018-08-17T21:12:12.439Z,6.07
2018-08-17T21:17:15.229Z,6.40
2018-08-17T21:22:17.823Z,6.17
2018-08-17T21:27:20.350Z,6.03
2018-08-17T21:32:24.023Z,6.87
2018-08-17T21:37:27.103Z,6.77
2018-08-17T21:42:29.626Z,7.00
2018-08-17T21:47:32.143Z,7.20
2018-08-17T21:52:34.687Z,6.80
2018-08-17T21:57:37.274Z,7.53
2018-08-17T22:02:39.819Z,7.30
2018-08-17T22:07:42.407Z,7.47
2018-08-17T22:12:44.936Z,7.53
2018-08-17T22:17:47.539Z,7.63
2018-08-17T22:22:50.078Z,7.97
2018-08-17T22:27:52.643Z,8.33
2018-08-17T22:32:55.176Z,7.40
2018-08-17T22:37:57.712Z,7.10
2018-08-17T22:43:00.297Z,7.53
2018-08-17T22:48:03.624Z,7.17
2018-08-17T22:53:06.294Z,7.73
2018-08-17T22:58:09.029Z,7.90
2018-08-17T23:03:11.555Z,7.83
2018-08-17T23:08:14.111Z,9.17
2018-08-17T23:13:16.642Z,9.03
2018-08-17T23:18:19.187Z,9.00
2018-08-17T23:23:21.705Z,9.00
2018-08-17T23:28:24.223Z,9.40
2018-08-17T23:33:26.749Z,8.90
2018-08-17T23:38:29.304Z,8.30
2018-08-17T23:43:31.854Z,8.93
2018-08-17T23:48:34.380Z,9.17
2018-08-17T23:53:36.945Z,8.50
2018-08-17T23:58:39.499Z,9.50
